Date,TemperatureHighF,TemperatureAvgF,TemperatureLowF,DewpointHighF,DewpointAvgF,DewpointLowF,HumidityHigh,HumidityAvg,HumidityLow,PressureMaxIn,PressureMinIn,WindSpeedMaxMPH,WindSpeedAvgMPH,GustSpeedMaxMPH,PrecipitationSumIn
2013-1-1,72.1,59.9,50.5,61.4,53.8,46.1,89,81,67,30.23,30.01,8,0,8,0.00
2013-1-2,74.3,63.1,55.9,67.2,58.5,52.1,89,85,76,30.08,29.96,11,1,11,0.06
2013-1-3,61.9,58.5,52.3,58.3,54.7,48.5,90,87,82,30.25,30.05,9,2,9,0.10
2013-1-4,59.7,54.3,50.7,54.2,49.7,46.0,88,84,80,30.32,30.21,11,2,11,0.02
2013-1-5,60.6,54.0,46.6,53.2,48.6,42.0,86,82,76,30.34,30.24,13,1,13,0.00
2013-1-6,65.7,58.7,54.9,59.3,54.4,50.8,89,86,78,30.25,30.11,7,1,7,0.31
2013-1-7,62.4,56.5,50.4,55.2,51.3,45.2,87,83,76,30.28,30.17,16,4,16,0.00
2013-1-8,70.7,62.5,59.7,65.1,58.5,55.2,91,87,81,30.28,30.18,12,2,12,0.06
2013-1-9,71.8,64.4,60.6,67.8,61.3,58.0,92,89,84,30.34,30.22,8,1,8,0.00
2013-1-10,73.9,66.7,61.2,69.0,63.5,58.9,92,89,83,30.36,30.27,10,0,10,0.10
2013-1-11,75.7,66.6,60.4,68.9,62.9,57.8,92,88,72,30.29,30.17,5,0,5,0.00
2013-1-12,75.6,65.9,59.4,68.4,62.1,56.5,92,88,77,30.21,30.11,2,-3,2,0.00
2013-1-13,75.7,65.9,58.6,67.7,61.7,55.8,92,87,75,30.18,30.08,2,0,2,0.00
2013-1-14,75.2,66.4,58.8,67.5,61.7,55.9,91,85,74,30.20,30.11,4,0,4,0.00
2013-1-15,74.8,67.4,61.3,68.6,63.2,58.1,91,86,78,30.16,30.06,3,0,3,0.00
2013-1-16,78.1,68.7,62.8,68.9,62.8,58.9,91,82,63,30.09,29.98,4,0,4,0.00
2013-1-17,75.4,60.9,45.7,65.9,54.2,35.5,90,79,66,30.13,29.88,27,2,27,0.00
2013-1-18,59.0,53.0,44.4,49.3,44.3,35.3,80,72,68,30.39,30.13,21,6,21,0.00
2013-1-19,61.5,57.6,54.1,55.7,52.2,48.3,87,82,76,30.37,30.19,16,5,16,0.00
2013-1-20,66.7,59.9,54.0,54.9,52.8,49.2,88,78,64,30.21,30.07,9,1,9,0.00
2013-1-21,68.7,58.1,51.8,55.8,51.0,47.1,86,77,60,30.13,30.02,6,0,6,0.00
2013-1-22,61.3,54.1,46.6,47.1,39.9,36.5,78,60,40,30.30,30.08,13,2,13,0.00
2013-1-23,58.1,49.6,41.2,42.8,38.3,32.5,76,66,52,30.42,30.28,7,1,8,0.00
2013-1-24,69.4,56.8,45.7,53.8,46.8,39.1,81,70,53,30.30,30.18,16,1,16,0.02
2013-1-25,69.3,60.1,55.0,59.5,53.9,50.2,87,80,64,30.33,30.16,9,1,9,0.00
2013-1-26,72.3,61.0,51.1,61.6,54.5,46.7,89,79,68,30.24,30.14,9,-3,9,0.00
2013-1-27,68.0,61.7,58.8,60.8,56.9,54.9,88,83,75,30.37,30.21,14,-1,14,0.08
2013-1-28,72.3,64.3,57.0,65.3,59.8,53.8,91,85,77,30.38,30.26,6,0,6,0.02
2013-1-29,72.7,66.4,59.7,67.8,61.9,-99.9,91,87,82,30.27,30.10,4,1,4,0.00
2013-1-30,79.9,71.5,64.9,68.1,64.3,61.7,91,79,63,30.11,29.81,14,-3,14,0.00
2013-1-31,72.1,54.2,47.7,62.6,40.9,33.7,83,62,40,30.25,29.88,14,2,14,0.12
2013-2-1,65.8,52.5,41.2,40.2,36.0,31.7,70,55,38,30.32,30.22,10,1,10,0.00
2013-2-2,60.6,50.8,42.6,45.4,39.8,33.6,79,66,53,30.35,30.15,8,1,8,0.00
2013-2-3,63.9,52.1,43.5,44.7,38.2,34.4,80,62,34,30.19,30.03,10,1,10,0.00
2013-2-4,64.0,53.0,43.3,49.5,42.5,-99.9,79,69,56,30.13,30.05,5,0,5,0.00
2013-2-5,67.1,57.3,47.5,51.3,46.8,41.4,81,69,46,30.11,30.00,6,0,6,0.00
2013-2-6,68.7,61.7,57.2,58.0,54.2,-99.9,84,78,68,30.16,30.04,5,0,5,0.00
2013-2-7,73.9,66.0,61.7,66.2,61.4,57.0,90,85,74,30.11,29.81,7,1,7,0.04
2013-2-8,68.7,63.0,56.5,63.6,55.9,50.7,88,77,66,30.09,29.82,10,-1,10,0.00
2013-2-9,65.7,58.1,51.8,54.4,50.1,47.0,87,75,61,30.26,30.08,13,3,13,0.00
2013-2-10,72.1,63.8,56.8,59.7,56.2,50.9,84,77,63,30.31,30.17,7,1,7,0.00
2013-2-11,79.3,67.8,61.2,65.8,61.0,56.3,87,79,63,30.19,30.06,5,1,5,0.00
2013-2-12,78.4,68.6,62.2,68.6,62.7,-99.9,90,83,67,30.08,29.89,7,-10,7,0.00
2013-2-13,74.8,69.2,62.4,70.9,64.9,56.8,91,86,74,29.93,29.79,8,-3,8,0.49
2013-2-14,63.1,56.3,50.9,56.8,50.5,46.1,84,81,77,30.08,29.91,7,1,7,0.06
2013-2-15,63.5,53.3,46.4,52.4,46.5,41.9,85,78,65,30.10,29.98,9,1,9,0.00
2013-2-16,59.4,50.6,43.0,49.3,42.6,27.8,86,75,55,30.13,29.90,20,2,20,0.00
2013-2-17,52.5,43.4,36.7,27.8,24.2,20.4,65,48,29,30.37,30.13,14,2,14,0.12
2013-2-18,61.5,47.3,34.0,43.2,35.5,25.5,78,64,47,30.42,30.23,8,0,8,0.00
2013-2-19,76.3,61.8,47.8,58.4,51.5,42.2,82,70,50,30.24,30.00,10,1,10,0.00
2013-2-20,62.4,56.2,50.2,56.8,44.6,39.2,83,66,50,30.18,30.07,10,1,10,0.00
2013-2-21,67.6,57.2,46.0,58.4,48.9,40.6,86,74,59,30.16,30.04,10,1,10,0.00
2013-2-22,78.4,68.7,60.1,68.7,63.5,56.4,90,84,72,30.09,29.99,4,1,4,0.00
2013-2-23,82.2,72.4,64.0,68.7,64.9,58.8,90,78,60,30.00,29.85,13,-6,13,0.08
2013-2-24,72.1,65.0,60.6,63.8,58.6,54.3,89,80,62,30.01,29.85,9,1,9,0.10
2013-2-25,67.6,63.9,60.6,63.6,60.6,56.0,92,89,84,29.96,29.81,17,-1,17,3.65
2013-2-26,76.5,67.8,60.6,70.1,62.7,55.1,92,84,62,29.82,29.67,11,1,11,0.37
2013-2-27,68.9,60.8,56.1,55.1,51.3,47.2,82,70,53,29.97,29.82,19,1,19,0.00
2013-2-28,69.1,59.7,49.6,50.2,45.1,37.4,81,60,43,29.97,29.83,18,2,18,0.00
2013-3-1,61.9,55.5,50.4,41.3,38.4,35.4,59,53,46,30.00,29.89,10,2,10,0.00
2013-3-2,56.7,48.9,42.4,38.2,33.7,28.9,72,56,41,30.03,29.91,18,2,18,0.00
2013-3-3,48.7,43.5,38.3,31.8,30.1,28.0,70,59,50,30.14,29.98,21,2,21,0.00
2013-3-4,58.8,46.9,35.2,39.9,33.6,27.7,75,61,37,30.23,30.11,12,1,12,0.00
2013-3-5,73.0,58.6,43.5,54.9,45.6,37.1,80,64,39,30.19,29.89,10,1,10,0.00
2013-3-6,63.3,53.8,45.7,57.2,37.6,31.2,83,56,37,30.13,29.86,21,1,21,0.00
2013-3-7,59.4,50.0,41.2,44.5,38.3,30.3,78,64,55,30.23,30.13,9,2,9,0.00
2013-3-8,64.6,52.9,43.5,50.6,43.5,-99.9,83,72,55,30.24,30.16,13,2,13,0.00
2013-3-9,68.5,57.7,46.0,51.8,47.1,40.6,82,68,54,30.29,30.17,16,-1,16,0.00
2013-3-10,73.2,62.8,54.3,62.2,54.2,-99.9,87,76,61,30.22,30.14,5,0,5,0.00
2013-3-11,74.1,64.5,55.2,61.6,56.7,-99.9,88,78,64,30.15,29.91,4,0,4,0.00
2013-3-12,71.6,65.3,57.0,67.2,59.5,48.0,90,82,68,30.02,29.84,13,1,13,0.00
2013-3-13,68.2,58.4,51.4,48.2,42.3,37.5,79,57,38,30.17,30.01,12,2,12,0.00
2013-3-14,56.5,51.1,45.0,39.3,35.4,29.8,75,55,48,30.31,30.15,16,2,16,0.00
2013-3-15,65.1,52.9,41.4,46.9,40.4,35.1,80,64,44,30.29,30.12,6,0,6,0.00
2013-3-16,77.5,61.1,46.9,54.5,46.9,40.6,83,62,41,30.17,29.99,13,1,13,0.00
2013-3-17,75.4,61.9,49.6,56.8,50.4,41.8,81,67,45,30.13,30.00,8,0,8,0.00
2013-3-18,78.6,67.4,61.0,65.7,60.2,56.1,87,78,60,30.06,29.86,5,0,5,0.00
2013-3-19,79.0,67.4,60.6,63.9,59.7,56.0,88,77,58,30.01,29.88,15,1,15,0.04
2013-3-20,64.6,60.9,54.0,57.8,54.5,49.2,86,80,73,30.01,29.83,21,-1,21,0.10
2013-3-21,66.0,55.1,46.6,49.4,41.0,35.8,86,62,34,29.95,29.85,13,-2,13,0.00
2013-3-22,64.8,56.7,48.4,50.0,43.5,38.0,74,62,50,30.06,29.92,10,1,10,0.00
2013-3-23,68.2,61.3,56.5,63.8,57.2,50.0,91,86,74,30.01,29.79,8,0,8,2.12
2013-3-24,80.4,69.8,62.2,72.5,65.5,59.6,92,87,74,29.82,29.53,9,-2,9,0.55
2013-3-25,67.3,59.6,52.5,62.0,42.2,32.1,85,54,32,30.03,29.62,15,3,15,0.00
2013-3-26,56.5,49.8,42.6,33.0,30.1,26.2,58,47,38,30.25,30.02,14,3,14,0.00
2013-3-27,57.0,48.5,41.0,39.6,34.3,29.2,74,58,47,30.31,30.21,12,1,12,0.00
2013-3-28,63.5,51.5,41.7,44.5,39.4,35.0,77,65,42,30.31,30.22,13,1,13,0.00
2013-3-29,67.6,55.6,45.0,47.0,43.3,38.9,81,65,43,30.34,30.22,5,0,5,0.00
2013-3-30,73.9,59.7,47.5,55.6,48.6,41.6,82,68,41,30.27,30.12,6,0,6,0.02
2013-3-31,79.5,65.6,53.2,58.6,53.2,45.8,80,65,47,30.15,29.97,7,0,7,0.00
2013-4-1,81.0,67.6,60.1,67.5,60.0,52.6,86,77,58,30.01,29.89,10,1,10,0.37
2013-4-2,72.0,64.3,57.0,60.0,56.4,53.2,87,77,61,30.12,29.98,11,1,11,0.00
2013-4-3,75.6,64.5,56.3,66.1,59.3,52.0,90,83,72,30.11,30.02,10,-3,10,0.35
2013-4-4,75.4,68.8,64.0,70.4,64.6,61.2,91,86,77,30.07,29.85,5,0,5,0.43
2013-4-5,66.6,60.2,56.5,62.7,55.8,-99.9,89,87,85,30.02,29.81,16,2,16,0.16
2013-4-6,68.5,61.2,55.4,58.3,54.7,50.1,86,79,69,30.18,30.01,14,3,14,0.00
2013-4-7,75.7,66.6,59.5,65.6,59.7,55.7,89,79,65,30.20,30.08,5,0,5,0.00
2013-4-8,77.4,67.0,57.6,67.3,60.7,53.6,90,81,68,30.17,30.08,4,0,4,0.00
2013-4-9,79.5,69.2,61.3,69.7,63.4,57.8,90,82,70,30.21,30.09,0,0,0,0.00
2013-4-10,80.2,70.1,61.5,70.8,64.4,58.0,90,82,71,30.16,30.01,4,-3,4,0.00
2013-4-11,79.7,72.6,68.2,73.0,68.1,64.8,91,86,77,30.01,29.82,5,0,5,0.00
2013-4-12,84.7,76.0,70.0,74.4,69.1,64.0,91,80,64,29.88,29.76,10,-3,10,0.00
2013-4-13,76.3,69.9,63.1,65.8,56.5,-99.9,84,65,45,30.03,29.87,10,1,10,0.00
2013-4-14,75.4,66.0,59.5,67.4,60.9,54.7,89,84,75,30.02,29.88,10,1,10,1.12
2013-4-15,81.5,69.5,52.2,69.6,64.1,46.5,91,83,65,30.13,29.80,12,1,12,0.00
2013-4-16,79.7,70.4,64.6,70.7,65.3,61.3,90,84,72,30.20,30.09,10,2,10,0.00
2013-4-17,75.9,70.3,66.0,69.7,65.8,62.8,90,86,80,30.19,30.10,9,2,9,0.00
2013-4-18,82.6,72.6,64.8,73.5,67.2,61.8,91,84,70,30.10,29.98,4,-3,4,0.00
2013-4-19,84.4,74.9,70.7,75.4,70.1,67.3,91,85,69,30.02,29.88,4,0,4,0.02
2013-4-20,71.8,59.5,55.0,68.4,54.5,50.2,89,83,77,30.19,29.97,10,-1,10,0.31
2013-4-21,67.6,64.7,60.6,62.7,59.1,53.8,90,82,77,30.20,30.09,20,5,20,0.02
2013-4-22,65.8,63.7,61.5,62.7,59.9,56.8,91,87,82,30.14,30.04,19,6,19,0.08
2013-4-23,73.0,65.6,59.5,61.9,57.6,53.9,82,76,65,30.17,30.05,13,4,13,0.00
2013-4-24,81.0,67.2,56.3,68.4,60.3,52.1,90,79,64,30.16,30.09,4,-3,4,0.00
2013-4-25,81.5,70.7,61.3,70.0,63.7,57.5,89,79,66,30.21,30.11,0,0,0,0.00
2013-4-26,78.6,70.5,64.8,68.4,63.6,59.8,88,79,68,30.30,30.16,16,3,16,0.00
2013-4-27,82.2,71.5,64.0,69.5,64.0,59.8,88,78,62,30.27,30.17,12,2,12,0.00
2013-4-28,81.1,72.3,66.9,68.8,65.3,62.2,87,79,65,30.18,30.01,3,0,3,0.00
2013-4-29,80.8,71.7,66.2,71.3,65.5,62.0,87,81,72,30.03,29.92,6,0,6,1.00
2013-4-30,80.8,70.5,64.6,72.5,65.1,61.0,90,83,72,30.04,29.94,11,1,11,0.02
2013-5-1,75.9,69.9,65.8,69.5,64.8,-99.9,90,86,80,30.08,29.98,20,4,20,0.00
2013-5-2,69.3,67.9,66.6,66.5,65.1,63.8,92,91,87,30.03,29.91,16,1,16,4.83
2013-5-3,67.8,66.5,64.6,64.9,63.7,62.3,92,91,86,29.92,29.82,16,2,16,1.77
2013-5-4,69.6,67.7,65.7,66.9,64.8,62.0,92,90,86,29.84,29.70,10,1,10,0.24
2013-5-5,78.6,68.8,62.1,66.5,60.3,54.5,92,76,48,29.90,29.71,11,1,11,0.10
2013-5-6,76.8,65.6,58.3,55.6,53.7,51.6,85,66,46,29.98,29.86,10,-3,10,0.00
2013-5-7,76.6,66.1,56.8,62.8,56.7,50.7,83,72,61,30.03,29.91,5,0,5,0.00
2013-5-8,81.7,68.8,59.4,65.6,59.8,-99.9,86,75,52,30.11,29.99,7,0,7,0.00
2013-5-9,84.0,71.7,62.6,71.0,63.4,57.8,88,76,59,30.14,30.07,5,0,5,0.00
2013-5-10,86.2,72.9,63.0,73.0,66.0,58.4,87,79,64,30.13,30.00,2,0,2,0.00
2013-5-11,88.7,74.3,68.4,74.9,67.8,64.0,87,81,61,30.05,29.92,8,0,8,0.02
2013-5-12,86.7,75.1,66.7,72.0,66.1,61.5,90,75,55,30.03,29.93,12,1,12,0.00
2013-5-13,81.5,71.4,62.2,61.8,55.2,48.4,75,59,33,30.15,29.99,10,1,10,0.00
2013-5-14,83.5,67.9,55.9,61.4,53.9,47.9,76,62,44,30.25,30.15,9,-6,9,0.00
2013-5-15,85.8,70.3,58.1,64.0,57.6,51.6,81,65,44,30.23,30.09,3,-3,3,0.00
2013-5-16,85.3,72.6,62.8,70.0,63.6,56.7,82,74,60,30.13,30.03,5,0,5,0.00
2013-5-17,87.1,74.0,64.2,72.2,65.9,59.6,86,77,60,30.13,30.04,3,0,3,0.00
2013-5-18,87.6,75.2,67.1,74.5,68.8,62.9,88,81,64,30.14,30.03,2,0,2,0.18
2013-5-19,84.7,74.9,68.5,75.5,69.6,65.1,90,84,73,30.10,30.02,2,0,2,0.04
2013-5-20,81.5,74.6,69.8,75.3,70.4,66.4,91,87,79,30.11,30.01,2,0,2,0.02
2013-5-21,88.0,75.6,69.1,75.3,69.9,66.0,91,83,65,30.07,29.96,5,-3,5,0.00
2013-5-22,88.0,75.4,68.5,77.4,69.4,-99.9,90,84,69,30.01,29.91,5,0,5,0.00
2013-5-23,89.2,76.8,69.4,75.1,69.8,66.0,90,80,63,29.99,29.90,5,-3,5,0.00
2013-5-24,93.6,79.3,70.2,71.1,66.1,58.4,89,67,38,30.11,29.94,12,1,12,0.00
2013-5-25,88.0,75.3,65.8,64.0,59.6,55.5,82,60,42,30.27,30.10,45,-9,45,0.00
2013-5-26,88.2,72.4,61.5,64.5,58.8,55.1,80,64,44,30.25,30.15,6,0,6,0.00
2013-5-27,89.2,73.7,62.1,70.9,62.9,56.0,82,70,53,30.23,30.14,6,-3,6,0.00
2013-5-28,88.5,77.1,70.5,72.3,66.8,62.5,78,71,58,30.21,30.13,4,0,4,0.00
2013-5-29,85.3,77.8,73.0,76.9,71.3,67.2,86,80,73,30.19,30.10,4,0,4,0.08
2013-5-30,89.4,78.9,73.8,77.5,72.6,69.9,88,82,67,30.19,30.10,3,0,3,0.02
2013-5-31,90.3,78.7,72.7,77.4,71.8,68.9,89,80,64,30.17,30.09,2,0,2,0.00
2013-6-1,91.8,79.7,74.5,77.2,72.2,69.7,85,78,62,30.11,30.03,2,0,2,0.00
2013-6-2,89.8,79.8,74.1,79.1,73.8,70.1,89,82,69,30.06,29.89,2,-3,2,0.00
2013-6-3,93.4,78.1,72.3,79.9,72.7,68.9,90,84,64,29.96,29.86,11,-3,11,0.98
2013-6-4,83.3,76.3,71.8,78.1,72.4,68.7,91,88,82,30.02,29.93,5,0,5,0.02
2013-6-5,79.5,73.9,72.3,75.1,70.9,69.3,91,89,85,30.03,29.93,3,0,3,0.12
2013-6-6,76.1,73.6,72.0,73.7,71.0,69.2,92,91,90,29.94,29.58,6,1,6,0.67
2013-6-7,91.6,79.0,70.9,78.3,72.2,68.1,92,80,62,29.92,29.59,7,-3,7,0.00
2013-6-8,91.0,79.0,72.5,80.0,73.2,69.1,90,82,69,30.08,29.91,4,-7,4,0.00
2013-6-9,89.1,78.6,72.7,78.1,73.1,69.1,89,84,70,30.13,30.04,5,0,5,0.00
2013-6-10,91.0,79.6,74.1,80.1,73.0,-99.9,91,83,69,30.11,30.01,2,0,2,0.00
2013-6-11,94.1,80.4,73.8,79.6,73.9,69.9,90,81,59,30.09,29.99,7,0,7,0.28
2013-6-12,97.5,81.1,72.5,81.0,74.1,69.1,91,80,57,30.07,29.96,6,0,6,0.00
2013-6-13,97.7,83.5,75.9,81.9,75.6,72.0,89,77,56,29.99,29.84,6,0,6,0.00
2013-6-14,92.7,80.3,73.6,80.9,74.0,67.6,89,81,63,29.94,29.79,16,0,16,0.20
2013-6-15,91.4,80.0,73.8,75.4,71.1,68.2,90,75,58,30.10,29.94,5,0,5,0.00
2013-6-16,91.6,80.4,74.1,76.2,71.7,68.2,83,75,60,30.13,30.05,8,0,8,0.00
2013-6-17,92.5,81.8,76.3,80.9,75.5,71.6,88,82,68,30.09,29.96,4,0,4,0.00
2013-6-18,95.0,82.1,73.0,79.1,73.6,69.6,90,77,57,30.04,29.91,9,0,9,0.00
2013-6-19,98.4,81.7,73.9,79.9,73.6,69.3,88,77,52,30.03,29.93,10,0,10,0.00
2013-6-20,85.3,78.0,73.2,78.6,73.0,69.1,89,85,74,30.10,29.98,11,1,11,0.00
2013-6-21,90.7,79.2,73.2,79.3,73.1,69.8,90,82,68,30.14,30.04,10,1,10,0.00
2013-6-22,85.3,77.6,74.1,78.8,73.2,70.7,90,86,77,30.14,30.07,5,0,5,0.00
2013-6-23,93.7,80.9,72.5,80.3,74.4,69.7,91,81,62,30.18,30.08,6,0,6,0.00
2013-6-24,93.6,81.3,74.3,80.1,74.6,70.7,89,81,64,30.21,30.11,2,0,2,0.00
2013-6-25,93.7,81.3,74.1,79.9,74.3,70.4,89,80,62,30.18,30.06,2,-3,2,0.00
2013-6-26,94.5,80.4,73.8,81.2,73.4,-99.9,89,81,65,30.10,30.00,5,-3,5,0.00
2013-6-27,95.9,79.9,72.1,82.2,73.9,68.2,89,83,64,30.03,29.89,7,-3,7,0.06
2013-6-28,92.5,80.4,75.0,79.6,74.3,71.1,91,82,65,29.93,29.79,9,0,9,0.00
2013-6-29,89.2,80.4,76.1,77.6,74.0,70.9,89,81,67,29.82,29.75,10,0,10,0.00
2013-6-30,89.8,77.6,73.8,79.6,73.0,70.6,91,86,71,29.87,29.78,2,0,2,0.18
2013-7-1,83.1,74.9,72.0,77.1,71.6,69.2,91,89,82,30.03,29.83,6,0,6,0.02
2013-7-2,83.5,74.8,72.0,78.5,71.8,69.5,92,90,82,30.12,29.99,3,0,3,0.00
2013-7-3,89.2,77.5,71.8,79.8,73.6,69.3,92,87,73,30.15,30.07,3,0,3,0.63
2013-7-4,89.8,79.0,73.8,79.4,74.0,70.2,91,85,71,30.18,30.11,4,0,4,0.00
2013-7-5,91.2,79.7,73.6,80.0,74.0,69.5,90,83,68,30.19,30.11,3,0,3,0.00
2013-7-6,95.2,80.9,74.5,80.8,74.8,71.1,91,82,63,30.16,30.09,0,0,0,0.06
2013-7-7,91.8,80.7,73.9,79.4,74.6,70.5,90,82,66,30.17,30.09,7,0,7,0.18
2013-7-8,93.4,81.1,73.9,80.5,75.0,70.4,90,81,64,30.20,30.11,6,0,6,0.00
2013-7-9,92.7,80.8,74.1,79.0,74.3,70.7,90,81,64,30.21,30.09,4,0,4,0.00
2013-7-10,93.4,80.1,72.3,79.2,73.4,68.6,90,81,61,30.11,29.97,3,0,3,0.00
2013-7-11,91.6,80.3,74.1,80.0,73.8,70.1,89,81,66,30.03,29.89,3,-3,3,0.00
2013-7-12,88.9,76.7,73.2,78.6,72.3,69.1,90,86,71,29.94,29.88,4,0,4,0.00
2013-7-13,90.7,77.4,72.3,80.5,73.2,69.1,91,86,71,30.01,29.90,2,-4,2,0.06
2013-7-14,87.3,77.4,72.7,77.0,72.7,69.9,91,86,70,30.14,29.99,4,-4,4,0.00
2013-7-15,92.1,79.5,73.6,81.6,74.5,70.5,91,85,68,30.17,30.10,10,0,10,0.00
2013-7-16,94.8,82.2,75.9,81.4,76.0,72.9,91,82,64,30.22,30.14,9,1,9,0.00
2013-7-17,94.8,82.2,76.8,80.5,75.4,72.3,90,80,62,30.21,30.11,9,1,9,0.00
2013-7-18,93.4,81.0,73.2,78.9,74.3,69.5,90,80,63,30.15,30.06,6,0,6,0.00
2013-7-19,91.2,79.1,73.9,78.7,72.9,70.0,89,82,65,30.13,30.04,2,0,2,0.00
2013-7-20,91.9,77.4,73.2,80.1,72.3,69.1,89,84,68,30.11,30.02,7,0,7,0.00
2013-7-21,92.7,77.9,72.3,79.4,73.3,69.3,91,86,64,30.11,30.02,6,0,6,0.00
2013-7-22,91.9,77.6,74.3,79.5,73.6,70.2,92,87,66,30.13,30.01,9,0,9,0.00
2013-7-23,92.1,78.5,73.0,80.3,73.7,70.3,92,86,68,30.04,29.91,7,0,7,0.00
2013-7-24,87.8,78.7,73.8,78.3,73.6,70.5,91,85,72,29.92,29.81,9,1,9,0.00
2013-7-25,91.6,80.8,73.2,79.3,74.1,70.2,90,81,64,29.96,29.82,6,-3,6,0.00
2013-7-26,92.8,81.7,74.8,80.6,75.7,71.4,90,83,66,30.03,29.93,10,1,10,0.00
2013-7-27,95.7,80.2,75.0,87.8,75.3,71.6,91,85,69,30.01,29.89,6,-7,6,3.61
2013-7-28,90.3,66.5,73.6,81.3,46.3,-99.9,92,71,74,30.06,29.92,4,-164,4,0.00
2013-7-29,90.7,80.6,71.4,80.0,74.5,68.7,92,82,69,30.16,30.03,3,0,3,0.00
2013-7-30,92.8,81.8,74.5,81.2,75.9,71.7,91,83,67,30.19,30.11,2,0,2,0.00
2013-7-31,86.2,76.7,72.7,80.1,72.6,-99.9,91,89,81,30.14,29.90,4,-7,4,0.73
2013-8-1,88.0,75.8,70.9,79.7,72.2,68.4,92,89,76,30.04,29.95,4,0,4,0.84
2013-8-2,89.6,79.4,70.9,80.2,74.2,68.4,92,85,69,30.04,29.94,3,0,3,0.02
2013-8-3,92.5,80.5,73.2,79.8,75.0,70.5,92,84,65,30.05,29.97,8,0,8,0.00
2013-8-4,96.4,82.5,75.9,80.2,74.6,-99.9,91,80,57,30.05,29.93,9,-10,9,0.00
2013-8-5,91.9,83.2,77.2,81.2,77.1,74.1,91,83,69,30.00,29.91,5,0,5,0.08
2013-8-6,92.1,74.6,76.8,81.8,61.2,-99.9,91,77,70,30.00,29.90,3,-90,5,0.00
2013-8-7,90.1,82.0,77.7,80.0,74.8,-99.9,89,82,70,30.02,29.94,7,-10,7,0.00
2013-8-8,91.6,82.8,76.1,81.3,77.0,73.2,92,83,70,30.06,29.96,3,0,3,0.00
2013-8-9,94.1,73.9,77.2,81.8,55.1,-99.9,91,71,64,30.09,29.98,6,-117,6,0.00
2013-8-10,92.8,76.7,74.5,81.1,60.6,-99.9,91,75,68,30.16,30.07,0,-76,0,0.00
2013-8-11,92.3,82.8,75.0,81.6,76.5,72.3,91,82,68,30.17,30.08,4,0,4,0.00
2013-8-12,94.3,83.4,75.2,81.4,76.4,72.1,91,80,64,30.12,30.00,5,0,5,0.00
2013-8-13,93.0,82.7,74.8,82.1,76.1,71.4,90,81,66,30.04,29.90,5,0,5,0.00
2013-8-14,94.8,82.1,75.0,81.4,75.4,68.8,91,80,62,30.00,29.87,5,0,5,0.00
2013-8-15,91.0,80.2,74.1,80.3,74.5,70.6,91,83,68,30.04,29.93,6,0,6,0.10
2013-8-16,87.6,77.5,72.0,79.4,73.3,63.8,92,87,73,30.06,29.95,5,0,5,0.73
2013-8-17,87.1,78.6,74.5,80.2,75.1,72.0,92,89,79,30.12,30.00,2,0,2,0.31
2013-8-18,91.2,81.4,75.0,82.0,76.6,72.3,92,86,71,30.14,30.05,5,0,5,0.00
2013-8-19,92.5,82.2,75.7,81.4,76.9,73.0,92,84,70,30.11,29.99,2,0,2,0.04
2013-8-20,93.0,82.1,75.0,82.1,75.5,-99.9,91,82,67,30.12,30.02,4,-7,4,0.02
2013-8-21,89.4,81.1,77.0,80.4,76.3,73.4,90,86,74,30.18,30.07,6,0,6,0.04
2013-8-22,82.9,76.7,72.7,79.2,73.7,69.9,92,90,83,30.18,30.02,13,0,13,2.08
2013-8-23,86.5,77.3,74.1,80.8,74.2,71.7,92,90,80,30.06,29.98,12,0,12,0.22
2013-8-24,84.4,78.1,73.9,78.7,74.4,71.5,92,89,82,30.14,30.01,9,1,9,0.02
2013-8-25,86.2,78.6,73.9,78.5,73.8,71.2,92,85,76,30.20,30.12,16,2,16,0.71
2013-8-26,89.6,81.4,76.8,78.3,74.6,71.4,88,80,65,30.19,30.07,14,2,14,0.00
2013-8-27,90.1,80.8,73.8,75.3,72.5,68.8,89,77,60,30.10,30.02,8,1,8,0.00
2013-8-28,90.0,77.9,69.6,74.9,70.5,66.2,90,79,60,30.07,29.97,2,0,2,0.00
2013-8-29,94.8,79.2,71.4,77.0,68.0,-99.9,90,73,49,30.03,29.91,7,-20,7,0.00
2013-8-30,92.8,81.6,74.5,80.1,73.2,-99.9,90,78,62,29.98,29.87,5,-8,5,0.08
2013-8-31,92.1,80.1,73.6,81.4,74.5,70.5,91,83,70,29.97,29.87,5,0,5,0.00
2013-9-1,90.1,79.2,72.5,80.0,73.6,69.8,91,84,68,29.99,29.88,2,0,2,0.45
2013-9-2,92.1,74.3,71.8,80.6,63.0,-99.9,92,80,63,30.00,29.89,5,-52,5,0.33
2013-9-3,90.7,72.6,72.9,80.6,58.7,-99.9,92,78,70,30.00,29.90,6,-166,6,0.02
2013-9-4,91.6,44.4,75.7,80.8,-8.2,-99.9,86,40,69,30.08,29.97,2,-479,2,0.00
2013-9-5,91.2,78.3,73.8,80.5,71.0,-99.9,91,83,71,30.10,30.00,4,-14,4,0.00
2013-9-6,89.4,77.5,72.7,78.5,71.3,-99.9,91,84,70,30.07,29.99,10,-7,10,0.00
2013-9-7,91.9,79.8,71.2,77.0,72.4,68.5,92,79,61,30.05,29.96,11,1,11,0.00
2013-9-8,91.4,80.3,71.2,74.3,70.8,67.0,88,74,55,30.00,29.92,12,1,12,0.00
2013-9-9,90.3,77.9,69.4,75.2,68.8,-99.9,91,76,60,30.07,29.96,10,-7,10,0.00
2013-9-10,90.3,81.5,74.7,75.7,71.3,-99.9,84,73,5,30.15,30.03,10,1,10,0.00
2013-9-11,90.1,80.1,73.6,78.6,73.5,69.2,89,80,68,30.13,30.04,11,-3,11,0.14
2013-9-12,89.2,78.4,72.3,79.0,73.2,69.3,91,84,70,30.05,29.90,9,0,9,0.96
2013-9-13,91.4,79.2,71.2,77.1,72.3,68.5,91,80,57,29.92,29.78,6,0,6,0.00
2013-9-14,90.1,79.6,72.3,79.4,73.7,69.1,90,83,70,30.00,29.81,3,0,3,0.00
2013-9-15,93.9,80.5,72.3,80.3,74.7,69.6,92,83,64,30.10,29.98,6,0,6,0.02
2013-9-16,94.5,81.3,73.4,79.1,74.8,70.3,91,81,61,30.10,30.01,9,0,9,0.00
2013-9-17,88.5,79.9,73.2,78.1,73.9,70.2,92,82,69,30.12,30.00,12,1,12,0.06
2013-9-18,82.9,76.3,72.7,75.7,71.7,69.8,92,86,74,30.10,30.02,16,2,16,2.12
2013-9-19,85.8,78.2,73.8,76.4,71.5,67.8,90,80,68,30.10,30.01,9,0,9,0.14
2013-9-20,86.5,76.9,69.6,74.6,69.8,66.2,91,79,66,30.06,29.93,9,1,9,0.00
2013-9-21,85.8,75.9,68.2,75.4,70.2,65.1,91,83,70,29.95,29.76,2,0,2,0.00
2013-9-22,80.6,75.4,71.8,75.5,71.5,69.0,91,88,82,29.84,29.74,5,0,5,0.45
2013-9-23,81.9,74.9,71.4,76.6,71.9,69.0,92,90,83,29.97,29.83,5,0,5,0.04
2013-9-24,82.2,75.4,72.3,76.9,72.4,69.6,92,90,82,29.95,29.81,7,0,7,0.39
2013-9-25,83.5,76.9,73.2,76.3,73.0,70.5,92,88,77,29.81,29.74,10,1,10,0.00
2013-9-26,77.5,74.2,70.5,74.1,70.5,67.1,92,88,80,29.90,29.73,12,1,12,0.02
2013-9-27,80.4,75.2,70.5,73.6,69.6,66.4,90,83,77,30.00,29.87,17,4,17,0.00
2013-9-28,79.2,74.7,72.1,70.8,69.2,67.1,91,83,73,30.07,29.96,13,4,13,0.84
2013-9-29,80.4,75.6,70.7,72.5,69.6,67.5,90,82,73,30.02,29.95,17,3,17,0.37
2013-9-30,81.7,75.5,73.0,70.1,67.4,63.9,85,76,62,30.05,29.93,14,2,14,0.00
2013-10-1,82.0,74.2,69.1,69.2,65.8,63.5,87,76,63,30.11,30.01,13,2,13,0.00
2013-10-2,83.5,73.2,64.2,70.8,66.4,61.0,91,80,65,30.10,30.04,10,2,10,0.00
2013-10-3,86.4,76.4,68.5,77.2,71.4,65.5,92,85,73,30.11,30.02,10,1,10,0.00
2013-10-4,87.4,77.1,70.2,77.4,72.3,67.4,92,85,69,30.11,30.03,11,1,11,0.00
2013-10-5,84.9,76.8,70.7,76.7,72.3,67.9,92,86,76,30.09,30.00,11,2,11,0.00
2013-10-6,87.3,77.4,72.7,78.9,73.0,-99.9,92,87,75,30.00,29.87,4,0,4,0.35
2013-10-7,84.7,75.9,71.4,76.3,72.3,68.7,92,89,73,29.87,29.76,7,0,7,2.02
2013-10-8,80.8,73.9,70.3,75.5,70.4,66.2,92,89,82,29.99,29.76,19,4,19,0.41
2013-10-9,73.9,65.2,61.9,67.1,62.2,59.5,92,90,78,30.08,29.97,10,2,10,0.08
2013-10-10,81.7,69.0,63.1,68.8,63.9,60.8,93,84,65,30.07,29.97,8,1,8,0.00
2013-10-11,86.2,70.7,63.0,67.2,63.3,60.7,92,79,49,30.04,29.92,6,0,6,0.00
2013-10-12,82.8,62.1,63.3,68.0,43.3,-99.9,90,69,52,30.03,29.95,7,-122,7,0.08
2013-10-13,82.6,71.6,63.5,70.8,64.4,60.3,91,79,60,30.09,30.00,12,1,12,0.00
2013-10-14,76.5,70.9,67.3,70.4,66.5,63.8,91,86,78,30.07,29.99,13,3,13,0.12
2013-10-15,74.8,72.3,68.2,70.8,68.7,65.4,92,88,86,30.00,29.93,18,5,18,0.69
2013-10-16,80.2,74.3,69.6,72.5,69.2,65.9,89,84,76,29.99,29.92,13,2,13,0.00
2013-10-17,85.3,73.4,66.7,74.5,68.9,64.0,92,86,70,29.99,29.89,4,0,4,0.00
2013-10-18,85.6,74.7,68.2,76.4,70.3,65.7,92,87,74,30.00,29.90,3,0,3,0.00
2013-10-19,83.8,76.1,70.9,76.5,72.0,68.1,92,87,74,29.95,29.86,7,0,7,0.00
2013-10-20,79.3,72.7,68.5,69.8,67.0,64.5,91,83,70,30.00,29.88,12,2,12,0.02
2013-10-21,81.1,75.1,69.6,75.5,71.2,66.6,91,88,82,30.03,29.94,16,2,16,0.00
2013-10-22,79.9,74.7,71.4,75.3,71.7,69.0,92,90,84,29.97,29.80,11,1,11,2.26
2013-10-23,80.4,67.5,58.1,69.0,59.8,51.4,92,78,47,30.02,29.79,10,1,10,0.02
2013-10-24,72.0,61.1,56.1,58.5,52.2,45.9,87,73,61,30.17,30.02,12,2,12,0.00
2013-10-25,76.8,61.6,54.1,59.8,53.2,49.5,90,75,55,30.26,30.15,12,1,12,0.00
2013-10-26,73.6,62.9,55.0,60.1,53.5,48.1,86,72,61,30.25,30.12,9,1,9,0.00
2013-10-27,72.5,59.7,51.6,55.3,51.8,47.8,89,77,54,30.15,30.08,8,0,8,0.08
2013-10-28,79.9,57.0,54.1,67.5,41.8,-99.9,90,76,63,30.22,30.10,9,-88,11,0.00
2013-10-29,80.4,66.7,59.5,67.8,59.0,-99.9,92,80,64,30.28,30.18,12,-26,12,0.00
2013-10-30,80.2,71.7,65.5,69.1,65.1,61.5,88,80,66,30.27,30.15,12,2,12,0.00
2013-10-31,81.9,72.9,66.0,72.6,68.0,63.0,91,85,72,30.15,29.98,2,0,2,0.00
2013-11-1,82.2,74.2,68.9,72.9,69.0,65.7,91,84,71,30.00,29.81,3,0,3,0.00
2013-11-2,73.8,65.8,58.8,69.8,61.3,-99.9,91,88,85,29.95,29.76,8,-14,8,1.61
2013-11-3,75.4,62.4,54.0,58.4,52.9,49.2,91,72,47,30.18,29.94,17,3,17,0.00
2013-11-4,73.6,64.4,65.1,64.6,48.4,-99.9,89,69,64,30.26,30.16,18,-64,18,0.18
2013-11-5,73.6,63.7,67.3,68.3,50.3,-99.9,91,79,1,30.25,30.16,22,-88,22,0.10
2013-11-6,84.9,71.1,66.0,72.9,66.9,63.0,91,86,67,30.17,30.06,8,1,8,0.00
2013-11-7,76.5,70.1,66.2,69.5,65.8,62.5,91,87,74,30.07,29.96,5,1,5,0.00
2013-11-8,68.9,62.8,54.3,64.7,54.8,47.0,87,75,69,30.19,30.00,16,4,16,0.00
2013-11-9,75.2,68.4,63.9,64.5,60.8,55.8,89,77,63,30.23,30.14,9,2,9,0.00
2013-11-10,77.5,65.5,60.3,67.4,60.1,-99.9,92,86,68,30.21,30.12,11,-27,11,0.00
2013-11-11,75.6,65.8,59.2,64.2,60.9,56.3,91,84,67,30.19,30.10,9,-2,9,0.00
2013-11-12,73.2,67.1,61.5,66.2,62.0,52.1,91,84,70,30.13,30.02,9,1,9,0.00
2013-11-13,61.2,54.3,51.6,52.1,45.8,43.0,81,73,68,30.41,30.13,21,7,22,0.00
2013-11-14,69.4,60.9,51.6,59.9,54.4,45.2,88,79,67,30.36,30.20,16,3,16,0.00
2013-11-15,68.4,62.9,56.5,64.8,59.8,53.0,92,90,85,30.22,30.05,5,-3,5,0.12
2013-11-16,74.5,67.6,62.2,68.8,64.3,59.9,93,89,82,30.17,30.08,10,1,10,0.00
2013-11-17,78.1,70.6,66.7,72.5,67.4,64.0,92,89,83,30.10,30.00,4,-3,4,0.20
2013-11-18,79.7,71.0,66.4,74.4,68.4,63.9,93,91,83,30.01,29.88,5,0,5,0.24
2013-11-19,70.3,65.2,57.7,67.9,58.3,49.3,92,78,70,30.03,29.89,20,4,20,0.00
2013-11-20,70.2,66.3,64.2,65.7,62.8,59.8,92,88,84,30.17,30.00,13,3,13,0.29
2013-11-21,75.6,68.1,65.1,69.6,64.8,62.7,92,89,81,30.25,30.14,9,2,9,0.02
2013-11-22,76.1,68.2,62.6,69.9,64.5,59.5,92,88,77,30.24,30.12,3,-3,3,0.02
2013-11-23,74.1,66.3,59.4,68.2,62.8,57.0,92,89,81,30.12,30.00,6,0,6,0.02
2013-11-24,66.2,58.5,54.1,61.8,50.2,43.8,86,74,65,30.33,30.05,21,5,21,0.00
2013-11-25,71.8,64.3,56.1,61.2,56.0,-99.9,83,76,66,30.31,30.10,18,1,18,0.00
2013-11-26,74.3,68.3,64.2,70.9,65.2,59.7,92,90,83,30.10,29.68,2,0,2,0.90
2013-11-27,70.3,56.1,41.4,67.9,50.1,33.3,92,80,67,30.20,29.60,20,3,20,0.29
2013-11-28,58.1,46.5,36.5,48.0,38.6,-99.9,85,77,68,30.39,30.20,14,-4,14,0.00
2013-11-29,62.1,54.8,45.5,54.8,49.7,41.5,91,83,72,30.43,30.35,20,0,20,0.00
2013-11-30,62.4,59.2,56.8,58.8,55.9,52.7,91,89,84,30.37,30.21,18,1,18,0.00
2013-12-1,66.6,60.5,56.1,60.8,56.5,53.2,90,86,79,30.21,29.97,8,2,8,0.00
2013-12-2,63.1,57.5,52.3,57.2,53.5,49.2,92,86,77,29.98,29.81,8,-3,8,0.00
2013-12-3,67.6,58.4,50.5,61.7,55.1,47.7,92,88,80,29.96,29.87,3,0,3,0.00
2013-12-4,74.7,64.5,57.9,67.8,61.2,55.6,93,88,76,30.10,29.94,8,0,8,0.00
2013-12-5,75.9,66.1,57.6,70.4,62.6,55.2,93,89,80,30.16,30.06,2,0,2,0.00
2013-12-6,77.0,67.9,61.2,72.0,64.8,58.6,93,89,82,30.16,30.08,2,0,2,0.00
2013-12-7,78.6,69.0,63.3,71.6,65.2,61.0,93,88,76,30.22,30.13,4,0,4,0.00
2013-12-8,69.8,65.2,62.4,65.2,62.4,59.8,92,91,86,30.25,30.14,9,-9,9,0.00
2013-12-9,76.8,67.9,61.0,71.6,64.7,58.7,93,90,82,30.17,30.06,3,-4,3,0.02
2013-12-10,78.1,66.7,55.6,69.8,63.2,48.4,93,87,73,30.24,30.02,8,-7,8,0.20
2013-12-11,66.0,60.4,55.2,60.8,54.9,-99.9,88,83,77,30.28,30.20,13,3,13,0.00
2013-12-12,60.6,56.5,53.4,52.2,45.0,38.9,80,66,49,30.36,30.22,12,3,12,0.00
2013-12-13,66.0,57.3,49.1,58.6,51.3,44.3,89,81,72,30.32,30.12,12,2,12,0.00
2013-12-14,74.5,65.6,55.0,69.2,62.3,52.2,92,89,83,30.13,29.87,2,0,2,0.63
2013-12-15,66.9,61.3,49.6,63.6,57.1,44.3,92,86,75,30.14,29.83,13,1,13,0.71
2013-12-16,56.8,47.4,40.6,48.4,42.3,36.3,89,82,71,30.25,30.13,8,1,8,0.00
2013-12-17,62.1,49.8,42.4,49.3,43.4,39.1,89,80,58,30.27,30.15,7,0,7,0.00
2013-12-18,61.9,49.5,42.4,44.3,40.6,35.0,88,74,40,30.29,30.17,10,1,10,0.02
2013-12-19,65.5,52.6,41.7,58.4,48.4,38.1,91,85,77,30.30,30.19,8,-3,8,0.00
2013-12-20,69.6,58.6,49.6,62.3,54.8,46.8,92,87,75,30.22,30.13,6,0,6,0.00
2013-12-21,75.6,65.3,56.1,70.1,62.3,53.5,92,90,82,30.14,30.02,3,0,3,0.00
2013-12-22,80.1,67.5,66.0,73.0,59.1,-99.9,93,84,77,30.12,30.05,5,-48,5,0.00
2013-12-23,80.8,70.4,64.6,72.2,65.3,-99.9,92,87,73,30.14,30.04,5,-7,6,0.02
2013-12-24,66.0,54.3,47.3,62.0,43.2,-99.9,88,71,49,30.29,30.09,14,-19,14,0.02
2013-12-25,62.1,53.7,43.7,56.1,48.6,37.4,90,83,69,30.28,30.21,16,3,16,0.00
2013-12-26,61.5,56.4,53.8,55.2,51.8,48.5,91,84,75,30.26,30.15,12,3,12,0.00
2013-12-27,64.0,58.8,55.6,58.4,54.9,51.7,89,87,80,30.31,30.19,14,4,14,0.00
2013-12-28,69.6,64.1,59.7,66.0,60.8,55.2,92,89,85,30.27,29.98,11,-2,11,0.14
2013-12-29,73.6,67.6,59.4,69.5,64.8,56.3,92,91,86,29.98,29.86,6,-3,6,0.31
2013-12-30,64.2,55.7,49.6,56.3,50.6,46.6,90,84,71,30.18,29.98,9,-2,9,0.00
2013-12-31,64.2,57.2,53.2,54.1,51.1,48.9,90,80,68,30.31,30.16,8,1,8,0.00
2014-1-1,62.2,58.5,55.9,58.5,55.1,50.7,92,88,82,30.29,30.06,6,1,6,1.10
2014-1-2,64.2,60.5,55.0,61.9,57.3,-99.9,92,91,78,30.06,29.73,18,-2,18,1.18